Time;durP1;ratioP1;P1;durP2;ratioP2;P2;SDS_P1;SDS_P2;PMS_P1;PMS_P2;Temp;Humidity;BMP_temperature;BMP_pressure;BME280_temperature;BME280_humidity;BME280_pressure;Samples;Min_cycle;Max_cycle;Signal;HPM_P1;HPM_P2
2022/01/30 06:00:48;;;;;;;6.73;3.20;;;7.80;97.20;;;;;;1701040;29;20231;-74
2022/01/30 06:01:39;;;;;;;8.35;3.08;;;7.80;97.20;;;;;;1701072;29;20199;-74
2022/01/30 06:02:31;;;;;;;7.97;3.40;;;7.80;97.20;;;;;;1701036;29;20195;-74
2022/01/30 06:03:22;;;;;;;10.40;3.30;;;7.70;97.20;;;;;;1700687;29;20487;-74
2022/01/30 06:04:13;;;;;;;4.70;3.00;;;7.80;97.20;;;;;;1701327;29;20210;-74
2022/01/30 06:05:05;;;;;;;5.55;3.15;;;7.70;97.20;;;;;;1701271;29;20453;-74
2022/01/30 06:05:57;;;;;;;8.60;3.15;;;7.70;97.20;;;;;;1701055;29;20187;-73
2022/01/30 06:06:50;;;;;;;9.32;3.25;;;7.70;97.20;;;;;;1701014;29;20211;-74
2022/01/30 06:07:49;;;;;;;6.50;3.05;;;7.70;97.20;;;;;;1699803;29;20206;-74
2022/01/30 06:08:43;;;;;;;9.15;2.95;;;7.70;97.20;;;;;;1701190;29;20211;-74
2022/01/30 06:09:34;;;;;;;5.32;3.00;;;7.70;97.20;;;;;;1701282;29;20667;-74
2022/01/30 06:10:26;;;;;;;7.35;2.90;;;7.70;97.20;;;;;;1701248;29;20268;-74
2022/01/30 06:11:18;;;;;;;11.73;3.40;;;7.70;97.20;;;;;;1701148;29;20741;-74
2022/01/30 06:12:10;;;;;;;10.75;4.35;;;7.70;97.20;;;;;;1700969;29;20207;-73
2022/01/30 06:13:02;;;;;;;12.35;3.78;;;7.70;97.20;;;;;;1695396;29;20214;-74
2022/01/30 06:13:53;;;;;;;9.98;3.10;;;7.60;97.20;;;;;;1700768;29;20230;-74
2022/01/30 06:14:46;;;;;;;8.17;3.50;;;7.70;97.20;;;;;;1701123;29;20659;-74
2022/01/30 06:15:38;;;;;;;9.15;3.78;;;7.60;97.20;;;;;;1701104;29;20261;-74
2022/01/30 06:16:30;;;;;;;7.30;2.80;;;7.60;97.20;;;;;;1701152;29;20231;-74
2022/01/30 06:17:22;;;;;;;8.57;3.22;;;7.60;97.20;;;;;;1701152;29;20242;-74
2022/01/30 06:18:13;;;;;;;9.57;3.05;;;7.60;97.20;;;;;;1700880;29;20218;-74
2022/01/30 06:19:05;;;;;;;12.93;3.43;;;7.60;97.20;;;;;;1701064;29;20209;-74
2022/01/30 06:19:55;;;;;;;9.48;3.40;;;7.60;97.20;;;;;;1700973;29;20195;-74
2022/01/30 06:20:47;;;;;;;7.83;3.00;;;7.60;97.20;;;;;;1700957;29;20294;-73
2022/01/30 06:21:38;;;;;;;12.85;3.47;;;7.50;97.20;;;;;;1701100;29;20210;-74
2022/01/30 06:22:29;;;;;;;10.27;3.10;;;7.50;97.20;;;;;;1701146;29;20211;-74
2022/01/30 06:23:22;;;;;;;10.63;2.95;;;7.50;97.20;;;;;;1701069;29;20230;-74
2022/01/30 06:24:14;;;;;;;7.78;2.90;;;7.50;97.20;;;;;;1700944;29;20282;-74
2022/01/30 06:25:06;;;;;;;7.22;3.28;;;7.50;97.20;;;;;;1700865;29;20206;-74
2022/01/30 06:25:58;;;;;;;8.38;3.47;;;7.50;97.20;;;;;;1701046;29;20203;-74
2022/01/30 06:26:49;;;;;;;13.32;3.17;;;7.50;97.20;;;;;;1700756;29;20259;-74
2022/01/30 06:27:40;;;;;;;6.70;3.17;;;7.50;97.20;;;;;;1700623;29;20278;-74
2022/01/30 06:28:31;;;;;;;7.90;3.42;;;7.60;97.20;;;;;;1701034;29;20246;-74
2022/01/30 06:29:23;;;;;;;7.97;3.10;;;7.60;97.20;;;;;;1701133;29;20207;-74
2022/01/30 06:30:14;;;;;;;9.52;3.13;;;7.60;97.20;;;;;;1701007;29;20258;-74
2022/01/30 06:31:05;;;;;;;9.73;2.83;;;7.60;97.20;;;;;;1700753;29;20211;-74
2022/01/30 06:31:58;;;;;;;7.25;2.80;;;7.60;97.20;;;;;;1701115;29;20235;-74
2022/01/30 06:32:50;;;;;;;6.85;3.20;;;7.60;97.20;;;;;;1700928;29;20574;-74
2022/01/30 06:33:40;;;;;;;9.55;3.10;;;7.60;97.20;;;;;;1695677;29;20227;-74
2022/01/30 06:34:32;;;;;;;8.30;3.03;;;7.60;97.20;;;;;;1697429;29;20226;-74
2022/01/30 06:35:23;;;;;;;12.45;4.13;;;7.60;97.20;;;;;;1700967;29;20211;-74
2022/01/30 06:36:15;;;;;;;13.43;3.47;;;7.60;97.20;;;;;;1700882;29;20233;-74
2022/01/30 06:37:06;;;;;;;6.68;2.55;;;7.60;97.20;;;;;;1700993;29;20226;-74
2022/01/30 06:37:57;;;;;;;7.57;2.90;;;7.60;97.20;;;;;;1700520;29;20221;-74
2022/01/30 06:38:49;;;;;;;9.48;3.22;;;7.60;97.20;;;;;;1700755;29;20211;-74
2022/01/30 06:39:40;;;;;;;10.63;3.30;;;7.60;97.20;;;;;;1700980;29;20195;-73
2022/01/30 06:40:31;;;;;;;7.53;3.35;;;7.60;97.20;;;;;;1701036;29;20207;-74
2022/01/30 06:41:23;;;;;;;10.57;2.97;;;7.70;97.20;;;;;;1700927;29;20199;-74
2022/01/30 06:42:14;;;;;;;9.45;3.60;;;7.70;97.20;;;;;;1700991;29;20264;-74
2022/01/30 06:43:06;;;;;;;6.40;2.60;;;7.70;97.20;;;;;;1699299;29;20209;-74
2022/01/30 06:43:57;;;;;;;10.85;3.05;;;7.70;97.20;;;;;;1699222;29;20219;-74
2022/01/30 06:44:49;;;;;;;7.77;3.40;;;7.70;97.20;;;;;;1696017;29;20238;-74
2022/01/30 06:45:42;;;;;;;8.93;3.08;;;7.70;97.20;;;;;;1695440;29;20307;-74
2022/01/30 06:46:34;;;;;;;7.07;2.95;;;7.60;97.20;;;;;;1701016;29;20210;-74
2022/01/30 06:47:27;;;;;;;7.95;3.53;;;7.60;97.20;;;;;;1700963;29;20206;-73
2022/01/30 06:48:19;;;;;;;12.07;3.10;;;7.60;97.20;;;;;;1700710;29;20218;-74
2022/01/30 06:49:10;;;;;;;9.77;3.30;;;7.60;97.20;;;;;;1700948;29;20806;-73
2022/01/30 06:50:02;;;;;;;9.40;3.50;;;7.60;97.20;;;;;;1701044;29;20779;-74
2022/01/30 06:50:52;;;;;;;8.27;4.32;;;7.50;97.20;;;;;;1700987;29;20234;-74
2022/01/30 06:51:44;;;;;;;9.23;2.80;;;7.50;97.20;;;;;;1701009;29;20210;-74
2022/01/30 06:52:35;;;;;;;8.27;3.05;;;7.50;97.20;;;;;;1701006;29;20214;-73
2022/01/30 06:53:27;;;;;;;10.45;3.28;;;7.50;97.20;;;;;;1700529;29;20196;-74
2022/01/30 06:54:18;;;;;;;8.57;3.00;;;7.50;97.20;;;;;;1701004;29;20246;-74
2022/01/30 06:55:10;;;;;;;10.73;3.83;;;7.50;97.20;;;;;;1700930;29;20205;-74
2022/01/30 06:56:00;;;;;;;10.02;3.28;;;7.50;97.20;;;;;;1700938;29;20716;-73
2022/01/30 06:56:52;;;;;;;5.60;2.83;;;7.50;97.20;;;;;;1701025;29;20556;-74
2022/01/30 06:57:43;;;;;;;9.60;3.63;;;7.40;97.20;;;;;;1700664;29;20207;-74
2022/01/30 06:58:35;;;;;;;6.95;3.72;;;7.40;97.20;;;;;;1695885;29;20199;-74
2022/01/30 06:59:26;;;;;;;9.95;3.45;;;7.40;97.20;;;;;;1694254;29;20734;-74
2022/01/30 07:00:18;;;;;;;8.43;3.60;;;7.40;97.20;;;;;;1694502;29;20614;-74
2022/01/30 07:01:10;;;;;;;7.82;2.85;;;7.40;97.20;;;;;;1700486;29;20550;-74
2022/01/30 07:02:03;;;;;;;6.65;3.30;;;7.40;97.20;;;;;;1700507;29;20624;-74
2022/01/30 07:02:55;;;;;;;10.18;3.53;;;7.40;97.20;;;;;;1700743;29;20203;-74
2022/01/30 07:03:47;;;;;;;11.98;3.55;;;7.40;97.20;;;;;;1700367;29;20215;-74
2022/01/30 07:04:37;;;;;;;9.68;3.10;;;7.40;97.20;;;;;;1700919;29;20238;-74
2022/01/30 07:05:29;;;;;;;8.17;3.47;;;7.40;97.20;;;;;;1700857;29;20214;-73
2022/01/30 07:06:20;;;;;;;8.32;3.22;;;7.30;97.20;;;;;;1700867;29;20203;-74
2022/01/30 07:07:11;;;;;;;9.30;3.50;;;7.40;97.20;;;;;;1700919;29;20199;-74
2022/01/30 07:08:02;;;;;;;10.55;3.50;;;7.40;97.20;;;;;;1700145;29;20451;-74
2022/01/30 07:08:54;;;;;;;13.40;4.13;;;7.40;97.20;;;;;;1700858;29;20205;-74
2022/01/30 07:09:45;;;;;;;11.27;3.67;;;7.40;97.20;;;;;;1700851;29;20482;-74
2022/01/30 07:10:38;;;;;;;7.97;3.27;;;7.40;97.20;;;;;;1700530;29;20206;-74
2022/01/30 07:11:29;;;;;;;8.43;3.03;;;7.40;97.20;;;;;;1700872;29;20214;-74
2022/01/30 07:12:20;;;;;;;7.63;3.50;;;7.40;97.20;;;;;;1700940;29;20202;-74
2022/01/30 07:13:12;;;;;;;6.40;3.60;;;7.30;97.20;;;;;;1700504;29;20242;-74
2022/01/30 07:14:04;;;;;;;10.23;3.85;;;7.30;97.20;;;;;;1700355;29;20227;-74
2022/01/30 07:14:55;;;;;;;9.70;3.50;;;7.40;97.20;;;;;;1700063;29;20200;-74
2022/01/30 07:15:46;;;;;;;7.40;3.20;;;7.40;97.20;;;;;;1700742;29;20730;-74
2022/01/30 07:16:37;;;;;;;7.45;3.20;;;7.40;97.20;;;;;;1700725;29;20322;-74
2022/01/30 07:17:29;;;;;;;7.47;3.13;;;7.40;97.20;;;;;;1700821;29;20206;-74
2022/01/30 07:18:21;;;;;;;7.75;3.60;;;7.40;97.20;;;;;;1700472;29;20250;-74
2022/01/30 07:19:13;;;;;;;8.38;3.25;;;7.40;97.20;;;;;;1700486;29;20207;-74
2022/01/30 07:20:05;;;;;;;8.25;3.60;;;7.40;97.20;;;;;;1700779;29;20199;-74
2022/01/30 07:20:56;;;;;;;11.35;3.40;;;7.40;97.20;;;;;;1700895;29;20632;-74
2022/01/30 07:21:47;;;;;;;8.30;3.33;;;7.40;97.20;;;;;;1700599;29;20199;-74
2022/01/30 07:22:39;;;;;;;10.50;4.57;;;7.40;97.20;;;;;;1700979;29;20203;-74
2022/01/30 07:23:30;;;;;;;8.02;3.38;;;7.40;97.20;;;;;;1700635;29;20230;-74
2022/01/30 07:24:22;;;;;;;7.30;3.53;;;7.40;97.20;;;;;;1700734;29;20286;-74
2022/01/30 07:25:12;;;;;;;9.98;3.72;;;7.40;97.20;;;;;;1700748;29;20215;-74
2022/01/30 07:26:04;;;;;;;12.00;3.93;;;7.50;97.20;;;;;;1700860;29;20203;-74
2022/01/30 07:26:55;;;;;;;8.43;2.97;;;7.40;97.20;;;;;;1700349;29;20575;-74
2022/01/30 07:27:47;;;;;;;9.47;3.43;;;7.40;97.20;;;;;;1700204;29;20195;-74
2022/01/30 07:28:38;;;;;;;8.73;3.60;;;7.40;97.20;;;;;;1694926;29;20584;-74
2022/01/30 07:29:30;;;;;;;7.70;3.43;;;7.40;97.20;;;;;;1700689;29;20290;-74
2022/01/30 07:30:20;;;;;;;11.15;3.83;;;7.40;97.20;;;;;;1700777;29;20207;-74
2022/01/30 07:31:12;;;;;;;9.13;4.57;;;7.40;97.20;;;;;;1700749;29;20203;-74
2022/01/30 07:32:03;;;;;;;10.60;4.22;;;7.40;97.20;;;;;;1700519;29;20467;-74
2022/01/30 07:32:58;;;;;;;8.65;4.03;;;7.40;97.20;;;;;;1700542;29;20198;-74
2022/01/30 07:33:50;;;;;;;10.68;3.95;;;7.40;97.20;;;;;;1700722;29;20266;-74
2022/01/30 07:34:42;;;;;;;7.85;3.63;;;7.40;97.20;;;;;;1700766;29;20219;-74
2022/01/30 07:35:34;;;;;;;9.43;3.60;;;7.40;97.20;;;;;;1700541;29;20246;-76
2022/01/30 07:36:26;;;;;;;8.93;4.40;;;7.40;97.20;;;;;;1700714;29;20734;-74
2022/01/30 07:37:18;;;;;;;9.32;3.40;;;7.40;97.20;;;;;;1700987;29;20626;-76
2022/01/30 07:38:10;;;;;;;12.70;4.90;;;7.40;97.20;;;;;;1700426;29;20207;-74
2022/01/30 07:39:01;;;;;;;9.48;3.90;;;7.40;97.20;;;;;;1700684;29;20510;-74
2022/01/30 07:39:53;;;;;;;6.50;3.40;;;7.50;97.20;;;;;;1700793;29;20206;-74
2022/01/30 07:40:44;;;;;;;9.20;3.70;;;7.50;97.20;;;;;;1700434;29;20226;-74
2022/01/30 07:41:36;;;;;;;12.90;3.93;;;7.50;97.20;;;;;;1700796;29;20306;-75
2022/01/30 07:42:27;;;;;;;7.03;4.03;;;7.50;97.20;;;;;;1700492;29;20210;-74
2022/01/30 07:43:18;;;;;;;16.83;4.70;;;7.50;97.20;;;;;;1700546;29;20202;-74
2022/01/30 07:44:09;;;;;;;9.68;4.97;;;7.50;97.20;;;;;;1700472;29;20455;-74
2022/01/30 07:45:01;;;;;;;7.53;3.70;;;7.50;97.20;;;;;;1700659;29;20250;-74
2022/01/30 07:45:52;;;;;;;8.35;4.35;;;7.50;97.20;;;;;;1700636;29;20214;-75
2022/01/30 07:46:44;;;;;;;11.80;4.20;;;7.50;97.20;;;;;;1700709;29;20209;-74
2022/01/30 07:47:35;;;;;;;8.38;4.80;;;7.50;97.20;;;;;;1700454;29;20231;-74
2022/01/30 07:48:26;;;;;;;12.27;4.17;;;7.50;97.20;;;;;;1700628;29;20203;-74
2022/01/30 07:49:19;;;;;;;11.25;4.82;;;7.50;97.20;;;;;;1700747;29;20207;-74
2022/01/30 07:50:10;;;;;;;7.95;4.22;;;7.60;97.20;;;;;;1700619;29;20265;-74
2022/01/30 07:51:01;;;;;;;9.20;4.88;;;7.60;97.20;;;;;;1700676;29;20219;-75
2022/01/30 07:51:53;;;;;;;9.80;4.57;;;7.60;97.20;;;;;;1700666;29;20282;-74
2022/01/30 07:52:44;;;;;;;8.20;4.50;;;7.60;97.20;;;;;;1700698;29;20572;-75
2022/01/30 07:53:36;;;;;;;11.27;4.93;;;7.60;97.20;;;;;;1700264;29;20191;-74
2022/01/30 07:54:27;;;;;;;13.35;4.88;;;7.60;97.20;;;;;;1700403;29;20517;-74
2022/01/30 07:55:19;;;;;;;8.93;4.60;;;7.70;97.20;;;;;;1700374;29;20203;-74
2022/01/30 07:56:12;;;;;;;16.33;5.55;;;7.70;97.20;;;;;;1700388;29;20234;-74
2022/01/30 07:57:03;;;;;;;10.75;4.80;;;7.70;97.20;;;;;;1700586;29;20257;-75
2022/01/30 07:57:55;;;;;;;12.40;4.97;;;7.70;97.20;;;;;;1700499;29;20211;-74
2022/01/30 07:58:46;;;;;;;13.52;5.07;;;7.70;97.20;;;;;;1694064;29;20208;-74
2022/01/30 07:59:38;;;;;;;11.10;4.90;;;7.70;97.20;;;;;;1694236;29;20204;-75
2022/01/30 08:00:28;;;;;;;8.50;4.95;;;7.70;97.20;;;;;;1696200;29;20589;-74
2022/01/30 08:01:20;;;;;;;10.13;4.10;;;7.70;97.20;;;;;;1700741;29;20221;-74
2022/01/30 08:02:11;;;;;;;7.57;4.07;;;7.70;97.20;;;;;;1700564;29;20207;-74
2022/01/30 08:03:06;;;;;;;8.87;4.20;;;7.70;97.20;;;;;;1700391;29;20294;-74
2022/01/30 08:03:58;;;;;;;14.55;4.30;;;7.70;97.20;;;;;;1700703;29;20244;-74
2022/01/30 08:04:52;;;;;;;10.95;4.45;;;7.60;97.20;;;;;;1700112;29;20406;-74
2022/01/30 08:05:43;;;;;;;5.78;3.40;;;7.60;97.20;;;;;;1700883;29;20686;-74
2022/01/30 08:06:35;;;;;;;8.03;3.97;;;7.60;97.20;;;;;;1700488;29;20671;-74
2022/01/30 08:07:26;;;;;;;9.52;3.67;;;7.60;97.20;;;;;;1700922;29;20210;-76
2022/01/30 08:08:18;;;;;;;8.35;4.20;;;7.60;97.20;;;;;;1699917;29;20288;-74
2022/01/30 08:09:08;;;;;;;9.88;4.07;;;7.60;97.20;;;;;;1700617;29;20653;-74
2022/01/30 08:10:00;;;;;;;9.23;4.00;;;7.60;97.20;;;;;;1700643;29;20192;-74
2022/01/30 08:10:51;;;;;;;12.55;4.43;;;7.60;97.20;;;;;;1700573;29;20203;-74
2022/01/30 08:11:42;;;;;;;11.67;4.20;;;7.60;97.20;;;;;;1700771;29;20667;-74
2022/01/30 08:12:34;;;;;;;8.88;3.67;;;7.60;97.20;;;;;;1700608;29;20210;-74
2022/01/30 08:13:26;;;;;;;11.20;4.50;;;7.60;97.20;;;;;;1700284;29;20598;-74
2022/01/30 08:14:17;;;;;;;7.95;3.78;;;7.60;97.20;;;;;;1700126;29;20239;-74
2022/01/30 08:15:09;;;;;;;11.10;3.40;;;7.60;97.20;;;;;;1700616;29;20211;-74
2022/01/30 08:16:00;;;;;;;9.98;3.50;;;7.60;97.20;;;;;;1700605;29;20208;-74
2022/01/30 08:16:52;;;;;;;10.50;4.63;;;7.60;97.20;;;;;;1700584;29;20237;-74
2022/01/30 08:17:42;;;;;;;11.43;3.65;;;7.60;97.20;;;;;;1697539;29;20233;-74
2022/01/30 08:18:37;;;;;;;7.10;3.50;;;7.60;97.20;;;;;;1693653;29;20215;-74
2022/01/30 08:19:27;;;;;;;11.82;3.90;;;7.60;97.20;;;;;;1693284;29;20755;-75
2022/01/30 08:20:24;;;;;;;7.47;3.53;;;7.70;97.20;;;;;;1698338;29;20537;-75
2022/01/30 08:21:15;;;;;;;7.95;3.55;;;7.70;97.20;;;;;;1698787;29;20341;-75
2022/01/30 08:22:06;;;;;;;14.40;3.90;;;7.70;97.20;;;;;;1694145;29;20200;-75
2022/01/30 08:22:59;;;;;;;8.02;3.53;;;7.70;97.20;;;;;;1695330;29;20208;-75
2022/01/30 08:23:51;;;;;;;9.20;3.28;;;7.80;97.20;;;;;;1700386;29;20215;-75
2022/01/30 08:24:42;;;;;;;13.32;3.30;;;7.80;97.20;;;;;;1700486;29;20196;-75
2022/01/30 08:25:34;;;;;;;10.17;3.20;;;7.90;97.20;;;;;;1700654;29;20203;-75
2022/01/30 08:26:25;;;;;;;9.00;3.72;;;7.90;97.20;;;;;;1701509;29;20215;-75
2022/01/30 08:27:16;;;;;;;11.90;3.60;;;7.90;97.20;;;;;;1701833;29;20208;-75
2022/01/30 08:28:07;;;;;;;8.60;3.78;;;7.90;97.20;;;;;;1701518;29;20207;-75
2022/01/30 08:28:59;;;;;;;8.80;3.30;;;7.90;97.20;;;;;;1701754;29;20191;-75
2022/01/30 08:29:53;;;;;;;10.07;3.40;;;8.00;97.20;;;;;;1701592;29;20226;-75
2022/01/30 08:30:45;;;;;;;10.02;2.97;;;8.00;97.20;;;;;;1701849;29;20199;-76
2022/01/30 08:31:36;;;;;;;8.75;3.17;;;8.00;97.20;;;;;;1701829;29;20207;-76
2022/01/30 08:32:28;;;;;;;6.90;2.60;;;8.00;97.20;;;;;;1701506;29;20723;-76
2022/01/30 08:33:19;;;;;;;12.38;3.85;;;8.10;97.20;;;;;;1701835;29;20238;-76
2022/01/30 08:34:10;;;;;;;10.57;3.80;;;8.10;97.20;;;;;;1701788;29;20230;-76
2022/01/30 08:35:02;;;;;;;13.48;3.10;;;8.20;97.20;;;;;;1701688;29;20215;-76
2022/01/30 08:35:55;;;;;;;11.93;3.10;;;8.20;97.20;;;;;;1701795;29;20203;-76
2022/01/30 08:36:46;;;;;;;11.48;3.90;;;8.20;97.20;;;;;;1701727;29;20247;-74
2022/01/30 08:37:38;;;;;;;8.17;3.27;;;8.30;97.20;;;;;;1701470;29;20207;-75
2022/01/30 08:38:30;;;;;;;11.35;3.92;;;8.30;97.20;;;;;;1701721;29;20694;-75
2022/01/30 08:39:20;;;;;;;11.88;3.88;;;8.30;97.20;;;;;;1701742;29;20235;-76
2022/01/30 08:40:14;;;;;;;11.70;3.43;;;8.30;97.20;;;;;;1701594;29;20206;-75
2022/01/30 08:41:05;;;;;;;13.60;3.30;;;8.30;97.20;;;;;;1701768;29;20199;-75
2022/01/30 08:41:57;;;;;;;11.17;4.10;;;8.40;97.20;;;;;;1701753;29;20195;-75
2022/01/30 08:42:49;;;;;;;9.90;3.97;;;8.40;97.20;;;;;;1701823;29;20211;-75
2022/01/30 08:43:40;;;;;;;11.90;4.10;;;8.40;97.20;;;;;;1701700;29;20231;-75
2022/01/30 08:44:32;;;;;;;10.83;3.50;;;8.40;97.20;;;;;;1701738;29;20207;-76
2022/01/30 08:45:23;;;;;;;8.95;3.13;;;8.40;97.20;;;;;;1701732;29;20247;-75
2022/01/30 08:46:15;;;;;;;7.77;3.57;;;8.40;97.20;;;;;;1701452;29;20203;-75
2022/01/30 08:47:06;;;;;;;10.65;3.22;;;8.40;97.20;;;;;;1701654;29;20442;-76
2022/01/30 08:47:57;;;;;;;15.80;3.60;;;8.50;97.20;;;;;;1701440;29;20272;-76
2022/01/30 08:48:48;;;;;;;10.50;3.83;;;8.60;97.20;;;;;;1699732;29;20450;-76
2022/01/30 08:49:40;;;;;;;10.47;3.20;;;8.60;97.20;;;;;;1695256;29;20203;-76
2022/01/30 08:50:30;;;;;;;6.20;2.75;;;8.70;97.20;;;;;;1699443;29;20205;-75
2022/01/30 08:51:24;;;;;;;8.37;3.30;;;8.70;97.20;;;;;;1701181;29;20213;-75
2022/01/30 08:52:16;;;;;;;4.72;2.60;;;8.80;97.20;;;;;;1701605;29;20203;-76
2022/01/30 08:53:08;;;;;;;11.93;3.67;;;8.80;97.20;;;;;;1701652;29;20250;-76
2022/01/30 08:53:58;;;;;;;7.18;2.80;;;8.80;97.20;;;;;;1701567;29;20722;-75
2022/01/30 08:54:51;;;;;;;11.63;3.33;;;8.80;97.20;;;;;;1699327;29;20606;-75
2022/01/30 08:55:43;;;;;;;13.15;3.60;;;8.80;97.20;;;;;;1695181;29;20215;-75
2022/01/30 08:56:34;;;;;;;12.93;3.15;;;8.80;97.20;;;;;;1695110;29;20242;-75
2022/01/30 08:57:25;;;;;;;10.63;4.73;;;8.80;97.20;;;;;;1695102;29;20224;-75
2022/01/30 08:58:17;;;;;;;9.90;3.75;;;8.90;97.20;;;;;;1694823;29;20258;-75
2022/01/30 08:59:08;;;;;;;7.72;3.47;;;8.90;97.20;;;;;;1695034;29;20244;-76
2022/01/30 09:00:00;;;;;;;9.90;3.57;;;9.00;97.20;;;;;;1695174;29;20208;-75
2022/01/30 09:00:51;;;;;;;16.30;3.53;;;9.10;97.20;;;;;;1695099;29;20207;-75
2022/01/30 09:01:42;;;;;;;9.48;3.40;;;9.10;97.20;;;;;;1695166;29;20671;-75
2022/01/30 09:02:34;;;;;;;10.40;3.90;;;9.20;97.20;;;;;;1695116;29;20573;-76
2022/01/30 09:03:26;;;;;;;10.25;3.25;;;9.30;97.20;;;;;;1695089;29;20208;-75
2022/01/30 09:04:20;;;;;;;10.43;3.83;;;9.40;97.20;;;;;;1697325;29;20554;-75
2022/01/30 09:05:12;;;;;;;12.75;3.53;;;9.40;97.20;;;;;;1701621;29;20662;-75
2022/01/30 09:06:03;;;;;;;9.13;3.00;;;9.50;97.20;;;;;;1701580;29;20691;-75
2022/01/30 09:06:56;;;;;;;7.43;3.20;;;9.60;97.20;;;;;;1701586;29;20207;-75
2022/01/30 09:07:47;;;;;;;8.27;3.40;;;9.60;97.20;;;;;;1701347;29;20218;-75
2022/01/30 09:08:39;;;;;;;10.90;4.10;;;9.70;97.20;;;;;;1701187;29;20282;-75
2022/01/30 09:09:30;;;;;;;7.28;3.92;;;9.70;97.20;;;;;;1692986;29;20481;-75
2022/01/30 09:10:22;;;;;;;8.70;3.43;;;9.80;97.20;;;;;;1698529;29;20300;-75
2022/01/30 09:11:12;;;;;;;15.75;4.25;;;9.80;97.20;;;;;;1705129;29;20457;-75
2022/01/30 09:12:05;;;;;;;6.07;3.40;;;9.80;97.20;;;;;;1705672;29;20290;-75
2022/01/30 09:12:56;;;;;;;8.35;2.47;;;9.80;97.20;;;;;;1706257;29;20208;-75
2022/01/30 09:13:48;;;;;;;10.60;3.00;;;9.80;97.20;;;;;;1707633;28;20215;-75
2022/01/30 09:14:40;;;;;;;9.95;3.78;;;9.90;97.20;;;;;;1697298;29;20230;-77
2022/01/30 09:15:37;;;;;;;10.55;3.53;;;9.90;97.20;;;;;;1695161;29;20286;-75
2022/01/30 09:16:28;;;;;;;15.40;3.97;;;9.90;97.20;;;;;;1701073;29;20693;-75
2022/01/30 09:17:22;;;;;;;9.80;3.43;;;9.90;97.20;;;;;;1701313;29;20591;-75
2022/01/30 09:18:13;;;;;;;13.75;3.67;;;9.90;97.20;;;;;;1700951;29;20210;-75
2022/01/30 09:19:04;;;;;;;12.68;3.33;;;9.90;97.20;;;;;;1700632;29;20199;-75
2022/01/30 09:19:56;;;;;;;16.30;4.03;;;9.90;97.20;;;;;;1701471;29;20368;-75
2022/01/30 09:20:47;;;;;;;10.07;3.50;;;9.90;97.20;;;;;;1701517;29;20261;-75
2022/01/30 09:21:39;;;;;;;8.60;3.30;;;9.90;97.20;;;;;;1701532;29;20199;-75
2022/01/30 09:22:32;;;;;;;6.00;2.92;;;9.90;97.20;;;;;;1701438;29;20603;-75
2022/01/30 09:23:24;;;;;;;12.73;4.40;;;9.90;97.20;;;;;;1701118;29;20290;-75
2022/01/30 09:24:15;;;;;;;7.68;2.90;;;9.90;97.20;;;;;;1700134;29;20217;-75
2022/01/30 09:25:08;;;;;;;10.30;3.58;;;10.00;97.20;;;;;;1694559;29;20208;-75
2022/01/30 09:26:00;;;;;;;9.80;2.85;;;10.00;97.20;;;;;;1694837;29;20200;-75
2022/01/30 09:26:51;;;;;;;9.63;3.38;;;10.10;97.20;;;;;;1694941;29;20211;-75
2022/01/30 09:27:42;;;;;;;11.23;3.70;;;10.20;97.20;;;;;;1695183;29;20211;-75
2022/01/30 09:28:33;;;;;;;6.18;2.53;;;10.30;97.20;;;;;;1701317;29;20203;-75
2022/01/30 09:29:27;;;;;;;6.70;3.07;;;10.40;97.20;;;;;;1700644;29;20212;-75
2022/01/30 09:30:18;;;;;;;5.53;2.55;;;10.50;97.20;;;;;;1700775;29;20950;-75
2022/01/30 09:31:09;;;;;;;7.53;3.37;;;10.60;97.20;;;;;;1701475;29;20742;-75
2022/01/30 09:32:02;;;;;;;6.70;2.55;;;10.70;97.20;;;;;;1701423;29;20454;-75
2022/01/30 09:32:54;;;;;;;11.75;3.50;;;10.80;97.20;;;;;;1701473;29;20219;-75
2022/01/30 09:33:45;;;;;;;12.35;2.95;;;11.00;97.20;;;;;;1701355;29;20227;-75
2022/01/30 09:34:37;;;;;;;11.40;3.00;;;11.10;97.20;;;;;;1701219;29;20203;-75
2022/01/30 09:35:28;;;;;;;6.95;2.92;;;11.20;97.20;;;;;;1701010;29;20218;-75
2022/01/30 09:36:20;;;;;;;9.23;3.87;;;11.30;97.20;;;;;;1701245;29;20195;-75
2022/01/30 09:37:11;;;;;;;7.50;3.13;;;11.40;97.20;;;;;;1701287;29;20459;-75
2022/01/30 09:38:04;;;;;;;9.73;3.40;;;11.50;97.20;;;;;;1700335;29;20291;-76
2022/01/30 09:38:55;;;;;;;8.93;3.28;;;11.70;97.20;;;;;;1701410;29;20571;-75
2022/01/30 09:39:47;;;;;;;14.47;3.27;;;11.80;97.20;;;;;;1701440;29;20826;-75
2022/01/30 09:40:37;;;;;;;11.23;3.25;;;11.90;97.20;;;;;;1701098;29;20671;-76
2022/01/30 09:41:34;;;;;;;11.60;3.67;;;11.90;97.20;;;;;;1699372;29;20638;-75
2022/01/30 09:42:25;;;;;;;13.02;3.72;;;12.00;97.20;;;;;;1695750;29;20447;-75
2022/01/30 09:43:17;;;;;;;7.73;3.00;;;12.20;97.20;;;;;;1699661;29;20206;-76
2022/01/30 09:44:17;;;;;;;9.70;3.15;;;12.20;97.20;;;;;;1697866;29;20223;-76
2022/01/30 09:45:11;;;;;;;7.32;2.90;;;12.30;97.20;;;;;;1694937;29;20211;-77
2022/01/30 09:46:03;;;;;;;8.93;3.58;;;12.30;97.20;;;;;;1694541;29;20207;-76
2022/01/30 09:46:54;;;;;;;9.98;3.63;;;12.30;97.20;;;;;;1694569;29;20208;-77
2022/01/30 09:47:47;;;;;;;13.68;3.50;;;12.30;97.20;;;;;;1694516;29;20290;-77
2022/01/30 09:48:38;;;;;;;6.20;2.47;;;12.40;97.20;;;;;;1694765;29;20564;-77
2022/01/30 09:49:31;;;;;;;7.47;3.10;;;12.40;97.20;;;;;;1694750;29;20670;-76
2022/01/30 09:50:22;;;;;;;8.95;3.60;;;12.50;97.20;;;;;;1694936;29;20606;-76
2022/01/30 09:51:14;;;;;;;6.43;3.20;;;12.50;97.20;;;;;;1694441;29;20263;-76
2022/01/30 09:52:05;;;;;;;7.50;3.15;;;12.50;97.20;;;;;;1694468;29;20204;-76
2022/01/30 09:52:57;;;;;;;11.68;3.67;;;12.50;97.20;;;;;;1694824;29;20200;-76
2022/01/30 09:53:50;;;;;;;8.15;3.20;;;12.40;97.20;;;;;;1694719;29;20707;-76
2022/01/30 09:54:42;;;;;;;8.88;3.22;;;12.40;97.20;;;;;;1694654;29;20259;-76
2022/01/30 09:55:39;;;;;;;7.63;3.15;;;12.30;97.20;;;;;;1694810;29;20218;-76
2022/01/30 09:56:31;;;;;;;8.52;3.67;;;12.30;97.20;;;;;;1696729;29;20672;-76
2022/01/30 09:57:22;;;;;;;9.65;3.33;;;12.30;97.20;;;;;;1700860;29;20223;-77
2022/01/30 09:58:14;;;;;;;7.37;2.80;;;12.30;97.20;;;;;;1700869;29;20215;-77
2022/01/30 09:59:05;;;;;;;8.70;3.22;;;12.20;97.20;;;;;;1701172;29;20447;-77
2022/01/30 09:59:57;;;;;;;7.95;2.88;;;12.10;97.20;;;;;;1701234;29;20199;-77
2022/01/30 10:00:48;;;;;;;7.97;3.45;;;12.00;97.20;;;;;;1701232;29;20689;-77
2022/01/30 10:01:40;;;;;;;8.53;3.60;;;11.90;97.20;;;;;;1701194;29;20742;-76
2022/01/30 10:02:32;;;;;;;10.10;3.42;;;11.80;97.20;;;;;;1700703;29;20248;-76
2022/01/30 10:03:23;;;;;;;8.25;2.95;;;11.80;97.20;;;;;;1697278;29;20204;-76
2022/01/30 10:04:15;;;;;;;11.95;3.30;;;11.70;97.20;;;;;;1695071;29;20196;-77
2022/01/30 10:05:07;;;;;;;11.50;3.15;;;11.70;97.20;;;;;;1701537;29;20219;-77
2022/01/30 10:06:02;;;;;;;11.07;2.90;;;11.60;97.20;;;;;;1701247;29;20282;-76
2022/01/30 10:06:57;;;;;;;6.97;3.00;;;11.60;97.20;;;;;;1701059;29;20206;-76
2022/01/30 10:07:53;;;;;;;9.35;3.42;;;11.70;97.20;;;;;;1700363;29;20572;-76
2022/01/30 10:08:46;;;;;;;7.20;2.60;;;11.80;97.20;;;;;;1700861;29;20207;-76
2022/01/30 10:09:44;;;;;;;8.40;3.08;;;11.90;97.20;;;;;;1701227;29;20210;-76
2022/01/30 10:10:36;;;;;;;12.88;3.40;;;12.10;97.20;;;;;;1701169;29;20242;-76
2022/01/30 10:11:48;;;;;;;9.40;3.03;;;12.30;97.20;;;;;;1701260;29;20214;-76
2022/01/30 10:13:02;;;;;;;9.23;2.97;;;12.60;97.20;;;;;;1701152;29;20208;-76
2022/01/30 10:14:05;;;;;;;6.20;2.72;;;12.70;97.20;;;;;;1700689;29;20242;-76
2022/01/30 10:15:01;;;;;;;8.10;3.03;;;12.80;97.20;;;;;;1700883;29;20199;-76
2022/01/30 10:15:53;;;;;;;12.60;2.90;;;12.80;97.20;;;;;;1700363;29;20207;-75
2022/01/30 10:16:46;;;;;;;10.55;3.78;;;12.80;97.20;;;;;;1698147;29;20211;-75
2022/01/30 10:17:40;;;;;;;7.60;2.95;;;12.70;97.20;;;;;;1694095;29;20569;-76
2022/01/30 10:18:32;;;;;;;7.28;3.03;;;12.70;97.20;;;;;;1693781;29;20227;-76
2022/01/30 10:19:24;;;;;;;11.35;2.58;;;12.70;97.20;;;;;;1694101;29;20939;-76
2022/01/30 10:20:16;;;;;;;6.75;2.55;;;12.80;97.20;;;;;;1694482;29;20216;-76
2022/01/30 10:21:19;;;;;;;10.30;3.20;;;12.80;97.20;;;;;;1696479;29;20298;-76
2022/01/30 10:22:09;;;;;;;9.00;2.58;;;12.90;97.20;;;;;;1700677;29;20215;-76
2022/01/30 10:23:08;;;;;;;10.10;2.97;;;13.00;97.20;;;;;;1700427;29;20692;-76
2022/01/30 10:23:58;;;;;;;8.38;3.33;;;13.20;97.20;;;;;;1700216;29;20281;-76
2022/01/30 10:24:52;;;;;;;9.00;3.20;;;13.30;97.20;;;;;;1700356;29;20223;-76
2022/01/30 10:25:52;;;;;;;11.90;3.15;;;13.40;97.20;;;;;;1701035;29;20215;-76
2022/01/30 10:26:43;;;;;;;9.45;2.90;;;13.40;97.20;;;;;;1701135;29;20203;-75
2022/01/30 10:27:35;;;;;;;11.27;3.70;;;13.50;97.20;;;;;;1700803;29;20203;-75
2022/01/30 10:28:28;;;;;;;7.82;3.00;;;13.60;97.20;;;;;;1700991;29;20211;-75
2022/01/30 10:29:21;;;;;;;6.18;2.60;;;13.70;97.20;;;;;;1700807;29;20214;-76
2022/01/30 10:30:18;;;;;;;9.60;3.00;;;13.80;97.20;;;;;;1700691;29;20203;-76
2022/01/30 10:31:10;;;;;;;9.23;3.58;;;13.90;97.20;;;;;;1701084;29;20207;-75
2022/01/30 10:32:04;;;;;;;11.10;3.10;;;14.00;97.20;;;;;;1701123;29;20211;-76
2022/01/30 10:32:57;;;;;;;6.53;2.60;;;14.20;97.20;;;;;;1701032;29;20200;-76